Time;durP1;ratioP1;P1;durP2;ratioP2;P2;SDS_P1;SDS_P2;PMS_P1;PMS_P2;Temp;Humidity;BMP_temperature;BMP_pressure;BME280_temperature;BME280_humidity;BME280_pressure;Samples;Min_cycle;Max_cycle;Signal;HPM_P1;HPM_P2
2022/03/03 00:01:56;;;;;;;19.43;15.17;;;1.70;1.00;;;;;;5093996;28;20179;-58
2022/03/03 00:04:22;;;;;;;22.70;15.40;;;;;;;;;;5100914;28;20255;-57
2022/03/03 00:06:48;;;;;;;20.60;14.90;;;1.80;1.00;;;;;;5097179;28;20170;-58
2022/03/03 00:09:14;;;;;;;24.27;17.03;;;1.70;1.00;;;;;;5098687;27;20452;-58
2022/03/03 00:11:39;;;;;;;21.33;14.87;;;1.70;1.00;;;;;;5097402;28;20190;-57
2022/03/03 00:14:05;;;;;;;21.73;14.63;;;;;;;;;;5095255;28;20194;-57
2022/03/03 00:16:31;;;;;;;21.20;14.47;;;1.70;1.00;;;;;;5101186;28;20546;-57
2022/03/03 00:18:57;;;;;;;23.03;16.60;;;1.70;1.00;;;;;;5101265;28;20852;-57
2022/03/03 00:21:22;;;;;;;22.90;15.77;;;1.60;1.00;;;;;;5100914;28;20225;-57
2022/03/03 00:23:48;;;;;;;24.23;17.50;;;1.70;1.00;;;;;;5100496;28;20252;-57
2022/03/03 00:26:14;;;;;;;24.60;15.83;;;1.60;1.00;;;;;;5105221;28;20199;-58
2022/03/03 00:28:39;;;;;;;21.50;14.93;;;1.50;1.00;;;;;;5089925;28;21617;-56
2022/03/03 00:31:06;;;;;;;25.80;16.00;;;;;;;;;;5103730;28;20237;-60
2022/03/03 00:33:31;;;;;;;20.83;14.27;;;1.60;1.00;;;;;;5094823;28;20201;-58
2022/03/03 00:35:57;;;;;;;21.27;14.90;;;1.60;1.00;;;;;;5106340;28;20452;-57
2022/03/03 00:38:23;;;;;;;22.30;15.10;;;1.60;1.00;;;;;;5097246;28;20881;-57
2022/03/03 00:40:48;;;;;;;22.00;14.83;;;1.50;1.00;;;;;;5102303;28;20198;-59
2022/03/03 00:43:14;;;;;;;19.70;15.30;;;1.60;1.00;;;;;;5102351;28;20182;-57
2022/03/03 00:45:39;;;;;;;21.70;15.13;;;1.60;1.00;;;;;;5106140;28;20186;-58
2022/03/03 00:48:06;;;;;;;27.67;15.20;;;;;;;;;;5097324;28;20205;-58
2022/03/03 00:50:32;;;;;;;23.83;15.13;;;1.50;1.00;;;;;;5097640;28;20255;-57
2022/03/03 00:52:57;;;;;;;21.40;15.40;;;1.50;1.00;;;;;;5104565;28;20801;-57
2022/03/03 00:55:23;;;;;;;24.30;16.17;;;1.60;1.00;;;;;;5103487;28;20440;-59
2022/03/03 00:57:49;;;;;;;27.67;16.87;;;1.50;1.00;;;;;;5103371;28;20235;-57
2022/03/03 01:00:15;;;;;;;22.53;15.87;;;1.50;1.00;;;;;;5099611;28;20196;-57
2022/03/03 01:02:40;;;;;;;22.93;14.63;;;1.40;1.00;;;;;;5104308;28;20436;-60
2022/03/03 01:05:07;;;;;;;22.87;15.63;;;1.40;1.00;;;;;;5102932;28;20590;-57
2022/03/03 01:07:33;;;;;;;21.70;15.50;;;1.30;1.00;;;;;;5097519;28;20181;-57
2022/03/03 01:09:59;;;;;;;23.17;15.90;;;1.20;1.00;;;;;;5099111;28;20786;-58
2022/03/03 01:12:25;;;;;;;24.63;16.50;;;1.40;1.00;;;;;;5102555;28;20446;-57
2022/03/03 01:14:50;;;;;;;24.60;16.00;;;1.30;1.00;;;;;;5098693;28;20186;-56
2022/03/03 01:17:16;;;;;;;32.63;16.20;;;1.20;1.00;;;;;;5106752;28;20190;-56
2022/03/03 01:19:42;;;;;;;19.23;15.30;;;;;;;;;;5106521;28;20220;-56
2022/03/03 01:22:08;;;;;;;21.33;15.90;;;1.10;1.00;;;;;;5102211;28;20170;-58
2022/03/03 01:24:33;;;;;;;23.63;14.97;;;1.10;1.00;;;;;;5098820;28;20436;-57
2022/03/03 01:26:59;;;;;;;23.30;14.97;;;1.20;1.00;;;;;;5097400;28;20186;-57
2022/03/03 01:29:25;;;;;;;22.77;15.37;;;;;;;;;;5094818;28;20219;-57
2022/03/03 01:31:51;;;;;;;26.07;17.17;;;1.10;1.00;;;;;;5098388;28;20188;-57
2022/03/03 01:34:16;;;;;;;20.50;14.53;;;1.10;1.00;;;;;;5092269;28;20494;-57
2022/03/03 01:36:43;;;;;;;22.13;16.10;;;1.00;1.00;;;;;;5099332;28;20268;-56
2022/03/03 01:39:09;;;;;;;18.57;14.50;;;;;;;;;;5094803;28;20213;-58
2022/03/03 01:41:35;;;;;;;21.30;14.47;;;1.00;1.00;;;;;;5100463;28;20460;-57
2022/03/03 01:44:01;;;;;;;23.00;16.43;;;1.00;1.00;;;;;;5094883;28;20444;-57
2022/03/03 01:46:27;;;;;;;21.30;15.03;;;0.90;1.00;;;;;;5097777;28;20448;-57
2022/03/03 01:48:52;;;;;;;20.57;15.07;;;0.90;1.00;;;;;;5093759;28;20534;-55
2022/03/03 01:51:18;;;;;;;23.20;15.57;;;0.90;1.00;;;;;;5099077;28;20190;-57
2022/03/03 01:53:44;;;;;;;19.17;15.20;;;;;;;;;;5103118;28;20199;-57
2022/03/03 01:56:10;;;;;;;21.83;16.13;;;1.00;1.00;;;;;;5094366;28;20646;-59
2022/03/03 01:58:40;;;;;;;24.90;15.17;;;1.00;1.00;;;;;;5097128;28;20446;-58
2022/03/03 02:01:06;;;;;;;23.00;14.20;;;1.00;1.00;;;;;;5092836;28;20471;-58
2022/03/03 02:03:31;;;;;;;21.80;15.50;;;1.00;1.00;;;;;;5089843;28;20533;-57
2022/03/03 02:05:58;;;;;;;25.53;16.20;;;1.00;1.00;;;;;;5092190;28;20437;-57
2022/03/03 02:08:23;;;;;;;21.70;15.20;;;0.90;1.00;;;;;;5095835;28;20189;-58
2022/03/03 02:10:51;;;;;;;26.90;15.97;;;0.90;1.00;;;;;;5101667;28;20531;-57
2022/03/03 02:13:17;;;;;;;22.20;16.10;;;0.80;1.00;;;;;;5096511;28;20530;-58
2022/03/03 02:15:54;;;;;;;19.20;15.63;;;0.90;1.00;;;;;;5097822;28;20547;-57
2022/03/03 02:18:20;;;;;;;24.93;15.47;;;;;;;;;;5102023;28;20178;-56
2022/03/03 02:20:45;;;;;;;26.80;15.20;;;1.00;1.00;;;;;;5100826;28;20456;-56
2022/03/03 02:23:11;;;;;;;24.80;15.10;;;1.00;1.00;;;;;;5097158;28;20437;-57
2022/03/03 02:25:37;;;;;;;22.60;14.53;;;;;;;;;;5097379;28;20766;-57
2022/03/03 02:28:03;;;;;;;23.17;14.70;;;1.00;1.00;;;;;;5096540;28;20198;-57
2022/03/03 02:30:28;;;;;;;25.30;14.70;;;1.00;1.00;;;;;;5097789;28;20470;-57
2022/03/03 02:32:54;;;;;;;23.60;16.30;;;1.00;1.00;;;;;;5099274;28;20444;-57
2022/03/03 02:35:20;;;;;;;23.30;15.03;;;;;;;;;;5103136;28;20190;-57
2022/03/03 02:37:47;;;;;;;22.70;15.53;;;1.00;1.00;;;;;;5100535;28;20191;-57
2022/03/03 02:40:19;;;;;;;21.53;15.57;;;1.00;1.00;;;;;;5092767;28;20465;-57
2022/03/03 02:42:49;;;;;;;27.00;16.17;;;1.00;1.00;;;;;;5094498;28;20437;-57
2022/03/03 02:45:15;;;;;;;18.60;13.90;;;0.90;1.00;;;;;;5091657;28;20436;-57
2022/03/03 02:47:47;;;;;;;22.57;15.10;;;1.00;1.00;;;;;;5102206;28;20477;-57
2022/03/03 02:50:15;;;;;;;25.50;15.53;;;0.90;1.00;;;;;;5098393;28;20239;-57
2022/03/03 02:52:40;;;;;;;20.10;13.87;;;0.90;1.00;;;;;;5102863;28;20940;-56
2022/03/03 02:55:07;;;;;;;18.70;14.17;;;0.80;1.00;;;;;;5104267;28;20494;-58
2022/03/03 03:00:18;;;;;;;22.77;14.50;;;;;;;;;;5095029;28;20567;-57
2022/03/03 03:02:43;;;;;;;18.70;14.10;;;0.80;1.00;;;;;;5100253;28;20440;-58
2022/03/03 03:05:10;;;;;;;20.70;14.63;;;0.90;1.00;;;;;;5100319;28;20440;-57
2022/03/03 03:07:36;;;;;;;25.43;15.00;;;0.90;1.00;;;;;;5098535;28;20198;-58
2022/03/03 03:10:03;;;;;;;19.43;13.90;;;0.90;1.00;;;;;;5102101;28;20515;-56
2022/03/03 03:12:29;;;;;;;18.07;12.70;;;0.80;1.00;;;;;;5096616;28;20926;-57
2022/03/03 03:14:54;;;;;;;21.90;15.50;;;0.80;1.00;;;;;;5095861;28;20440;-56
2022/03/03 03:17:20;;;;;;;24.03;14.30;;;0.90;1.00;;;;;;5105719;28;20272;-57
2022/03/03 03:19:46;;;;;;;21.07;13.67;;;;;;;;;;5104135;28;20183;-58
2022/03/03 03:22:12;;;;;;;18.43;13.37;;;0.80;1.00;;;;;;5095984;28;22167;-57
2022/03/03 03:24:37;;;;;;;21.20;15.30;;;0.80;1.00;;;;;;5102961;28;20435;-56
2022/03/03 03:27:04;;;;;;;19.90;14.10;;;0.80;1.00;;;;;;5100814;28;20199;-56
2022/03/03 03:29:30;;;;;;;20.73;14.63;;;;;;;;;;5096356;28;20211;-58
2022/03/03 03:31:56;;;;;;;34.30;14.90;;;;;;;;;;5101294;28;20428;-58
2022/03/03 03:34:21;;;;;;;19.37;13.80;;;0.70;1.00;;;;;;5104238;28;20447;-56
2022/03/03 03:36:47;;;;;;;20.90;14.40;;;0.70;1.00;;;;;;5098169;28;20486;-57
2022/03/03 03:39:12;;;;;;;18.80;14.93;;;0.70;1.00;;;;;;5091973;28;20187;-55
2022/03/03 03:41:38;;;;;;;22.90;13.70;;;0.60;1.00;;;;;;5104212;28;20215;-57
2022/03/03 03:44:04;;;;;;;19.07;13.47;;;0.70;1.00;;;;;;5097988;28;20175;-57
2022/03/03 03:46:30;;;;;;;19.37;14.00;;;0.70;1.00;;;;;;5107923;28;20182;-57
2022/03/03 03:48:56;;;;;;;23.77;14.90;;;;;;;;;;5102186;28;20240;-57
2022/03/03 03:51:22;;;;;;;21.47;13.73;;;;;;;;;;5103760;28;20589;-57
2022/03/03 03:53:47;;;;;;;19.20;14.47;;;0.60;1.00;;;;;;5100412;28;20445;-58
2022/03/03 03:56:13;;;;;;;22.37;14.90;;;0.60;1.00;;;;;;5100451;28;20448;-58
2022/03/03 03:58:38;;;;;;;21.43;16.17;;;0.50;1.00;;;;;;5093272;28;20532;-58
2022/03/03 04:01:07;;;;;;;21.50;15.17;;;0.50;1.00;;;;;;5107212;28;20611;-57
2022/03/03 04:03:33;;;;;;;19.60;13.60;;;;;;;;;;5097137;28;20202;-58
2022/03/03 04:05:58;;;;;;;19.47;12.90;;;0.50;1.00;;;;;;5105905;28;20439;-56
2022/03/03 04:08:24;;;;;;;24.00;14.40;;;0.50;1.00;;;;;;5099385;28;20449;-56
2022/03/03 04:10:49;;;;;;;23.37;14.20;;;0.50;1.00;;;;;;5105766;28;20182;-56
2022/03/03 04:13:15;;;;;;;23.57;14.43;;;0.40;1.00;;;;;;5099124;28;20190;-56
2022/03/03 04:15:41;;;;;;;20.27;13.87;;;0.40;1.00;;;;;;5104317;28;20195;-57
2022/03/03 04:18:07;;;;;;;18.53;13.67;;;0.30;1.00;;;;;;5100110;28;20274;-56
2022/03/03 04:20:32;;;;;;;21.83;15.17;;;0.30;1.00;;;;;;5097734;28;20547;-57
2022/03/03 04:22:58;;;;;;;19.67;13.57;;;0.20;1.00;;;;;;5099316;28;20673;-57
2022/03/03 04:25:27;;;;;;;20.93;13.00;;;0.20;1.00;;;;;;5106797;28;20264;-57
2022/03/03 04:27:52;;;;;;;23.87;14.13;;;0.20;1.00;;;;;;5102521;28;20239;-57
2022/03/03 04:30:18;;;;;;;23.30;14.57;;;0.20;1.00;;;;;;5099429;28;20467;-56
2022/03/03 04:32:43;;;;;;;23.53;13.53;;;0.20;1.00;;;;;;5098097;27;20190;-57
2022/03/03 04:35:10;;;;;;;17.80;13.33;;;0.10;1.00;;;;;;5102235;28;20213;-56
2022/03/03 04:37:37;;;;;;;18.80;12.93;;;0.10;1.00;;;;;;5102191;28;20251;-57
2022/03/03 04:40:04;;;;;;;24.07;13.90;;;0.10;1.00;;;;;;5100988;28;20554;-57
2022/03/03 04:42:30;;;;;;;17.70;13.10;;;0.10;1.00;;;;;;5103715;28;20460;-56
2022/03/03 04:44:55;;;;;;;17.30;13.10;;;0.00;1.00;;;;;;5099116;28;20815;-57
2022/03/03 04:47:21;;;;;;;20.23;13.07;;;0.00;1.00;;;;;;5100992;28;20655;-57
2022/03/03 04:49:47;;;;;;;21.63;13.53;;;-0.10;1.00;;;;;;5097832;28;20175;-57
2022/03/03 04:52:13;;;;;;;21.00;14.17;;;-0.10;1.00;;;;;;5107080;28;20781;-58
2022/03/03 04:54:38;;;;;;;19.13;13.67;;;-0.10;1.00;;;;;;5100872;28;20190;-58
2022/03/03 04:57:04;;;;;;;21.40;14.10;;;0.00;1.00;;;;;;5105316;28;20186;-57
2022/03/03 04:59:31;;;;;;;24.03;13.30;;;;;;;;;;5099209;28;20205;-56
2022/03/03 05:01:56;;;;;;;22.57;14.10;;;0.00;1.00;;;;;;5106663;28;20482;-56
2022/03/03 05:04:22;;;;;;;23.23;14.70;;;0.00;1.00;;;;;;5098825;28;20439;-57
2022/03/03 05:06:48;;;;;;;24.93;15.97;;;0.00;1.00;;;;;;5100154;28;20181;-56
2022/03/03 05:09:13;;;;;;;20.13;13.80;;;0.10;1.00;;;;;;5102531;28;20527;-58
2022/03/03 05:11:39;;;;;;;18.70;14.17;;;;;;;;;;5095342;28;20448;-58
2022/03/03 05:14:05;;;;;;;20.13;14.00;;;0.00;1.00;;;;;;5093333;28;20202;-56
2022/03/03 05:16:31;;;;;;;25.43;15.80;;;0.00;1.00;;;;;;5091212;28;21198;-55
2022/03/03 05:18:57;;;;;;;22.90;14.80;;;0.10;1.00;;;;;;5092703;28;20194;-55
2022/03/03 05:21:23;;;;;;;21.97;13.67;;;0.10;1.00;;;;;;5094133;28;20829;-56
2022/03/03 05:23:48;;;;;;;20.70;14.13;;;0.20;1.00;;;;;;5096177;28;20301;-55
2022/03/03 05:26:14;;;;;;;24.83;13.40;;;0.10;1.00;;;;;;5095539;28;20933;-56
2022/03/03 05:28:40;;;;;;;19.27;14.07;;;;;;;;;;5091466;28;20576;-56
2022/03/03 05:31:05;;;;;;;21.20;14.80;;;0.20;1.00;;;;;;5092029;28;20294;-57
2022/03/03 05:33:32;;;;;;;29.13;16.40;;;;;;;;;;5103961;28;20443;-59
2022/03/03 05:36:00;;;;;;;19.17;13.80;;;0.40;1.00;;;;;;5096180;28;20182;-58
2022/03/03 05:38:30;;;;;;;19.03;15.10;;;0.40;1.00;;;;;;5089522;28;20566;-58
2022/03/03 05:40:57;;;;;;;24.53;14.50;;;0.50;1.00;;;;;;5090026;28;20468;-57
2022/03/03 05:43:24;;;;;;;26.07;15.90;;;0.50;1.00;;;;;;5092534;28;20473;-56
2022/03/03 05:45:53;;;;;;;21.17;15.60;;;0.50;1.00;;;;;;5090546;28;20452;-57
2022/03/03 05:48:20;;;;;;;25.43;13.90;;;0.50;1.00;;;;;;5091613;28;20452;-57
2022/03/03 05:50:47;;;;;;;18.80;13.37;;;0.50;1.00;;;;;;5095791;28;20440;-57
2022/03/03 05:53:13;;;;;;;19.60;12.17;;;;;;;;;;5096863;28;20497;-59
2022/03/03 05:55:43;;;;;;;19.53;15.13;;;0.50;1.00;;;;;;5097133;28;20471;-58
2022/03/03 05:58:11;;;;;;;20.70;14.23;;;0.50;1.00;;;;;;5090954;28;20452;-57
2022/03/03 06:00:37;;;;;;;19.93;14.07;;;0.50;1.00;;;;;;5094991;28;20480;-57
2022/03/03 06:03:04;;;;;;;21.17;14.73;;;;;;;;;;5089829;28;20482;-58
2022/03/03 06:05:30;;;;;;;20.27;13.83;;;0.30;1.00;;;;;;5089042;28;20463;-57
2022/03/03 06:08:04;;;;;;;21.57;14.37;;;0.30;1.00;;;;;;5089825;28;20444;-58
2022/03/03 06:10:32;;;;;;;22.63;13.20;;;0.30;1.00;;;;;;5090935;28;20531;-58
2022/03/03 06:13:28;;;;;;;21.80;13.63;;;0.30;1.00;;;;;;5089571;28;20449;-57
2022/03/03 06:15:54;;;;;;;20.77;14.23;;;0.40;1.00;;;;;;5090387;28;20449;-57
2022/03/03 06:18:27;;;;;;;21.60;14.30;;;0.60;1.00;;;;;;5090366;28;20439;-58
2022/03/03 06:20:53;;;;;;;22.07;13.63;;;0.70;1.00;;;;;;5096123;28;20463;-59
2022/03/03 06:23:20;;;;;;;26.37;14.73;;;0.80;1.00;;;;;;5098723;28;20432;-59
2022/03/03 06:25:50;;;;;;;19.37;14.10;;;0.80;1.00;;;;;;5092778;28;20439;-58
2022/03/03 06:28:16;;;;;;;21.17;13.97;;;0.90;1.00;;;;;;5095151;28;20465;-59
2022/03/03 06:30:42;;;;;;;20.03;15.53;;;;;;;;;;5091754;28;20528;-59
2022/03/03 06:33:08;;;;;;;19.37;13.90;;;;;;;;;;5092360;28;20251;-58
2022/03/03 06:35:36;;;;;;;25.80;16.43;;;;;;;;;;5091609;28;20843;-59
2022/03/03 06:38:07;;;;;;;26.37;14.50;;;0.90;1.00;;;;;;5094218;28;20441;-59
2022/03/03 06:40:34;;;;;;;22.00;15.40;;;1.00;1.00;;;;;;5092778;28;20514;-58
2022/03/03 06:43:00;;;;;;;21.03;13.13;;;1.00;1.00;;;;;;5089133;28;20485;-59
2022/03/03 06:45:31;;;;;;;18.83;14.57;;;1.20;1.00;;;;;;5090357;28;20740;-58
2022/03/03 06:47:59;;;;;;;22.30;15.00;;;1.30;1.00;;;;;;5089211;28;20969;-59
2022/03/03 06:50:26;;;;;;;21.37;14.70;;;;;;;;;;5090622;28;20944;-58
2022/03/03 06:52:52;;;;;;;25.07;15.47;;;1.40;1.00;;;;;;5089848;28;20454;-59
2022/03/03 06:55:21;;;;;;;18.67;14.03;;;1.40;1.00;;;;;;5089107;28;20468;-57
2022/03/03 06:57:49;;;;;;;17.73;13.37;;;1.40;1.00;;;;;;5089589;28;20802;-57
2022/03/03 07:00:18;;;;;;;23.83;16.50;;;-1.00;1.00;;;;;;5089048;28;20476;-59
2022/03/03 07:02:46;;;;;;;20.50;14.30;;;1.50;1.00;;;;;;5088621;28;20790;-59
2022/03/03 07:05:12;;;;;;;21.93;14.50;;;1.50;1.00;;;;;;5092465;28;21006;-58
2022/03/03 07:07:39;;;;;;;19.90;14.20;;;1.60;1.00;;;;;;5097498;28;20545;-58
2022/03/03 07:10:05;;;;;;;19.27;13.77;;;1.70;1.00;;;;;;5089412;28;20441;-57
2022/03/03 07:12:33;;;;;;;21.83;13.80;;;1.70;1.00;;;;;;5090915;28;20437;-58
2022/03/03 07:14:59;;;;;;;20.53;14.50;;;1.70;1.00;;;;;;5098976;28;20443;-58
2022/03/03 07:17:47;;;;;;;22.53;14.03;;;1.60;1.00;;;;;;5089524;28;20433;-57
2022/03/03 07:20:30;;;;;;;22.23;15.07;;;1.60;1.00;;;;;;5092769;28;20198;-58
2022/03/03 07:23:07;;;;;;;24.97;15.47;;;1.60;1.00;;;;;;5092285;28;20436;-57
2022/03/03 07:25:48;;;;;;;22.40;14.80;;;1.70;1.00;;;;;;5092268;28;20444;-59
2022/03/03 07:28:14;;;;;;;20.40;14.13;;;1.70;1.00;;;;;;5092099;28;20965;-58
2022/03/03 07:30:42;;;;;;;23.00;15.80;;;1.70;1.00;;;;;;5093311;28;20549;-58
2022/03/03 07:33:12;;;;;;;22.63;15.93;;;1.70;1.00;;;;;;5091346;28;20595;-58
2022/03/03 07:35:40;;;;;;;21.63;15.37;;;1.70;1.00;;;;;;5099689;28;20447;-57
2022/03/03 07:38:19;;;;;;;23.57;13.77;;;1.70;1.00;;;;;;5091720;28;20448;-59
2022/03/03 07:40:48;;;;;;;22.50;14.50;;;2.00;1.00;;;;;;5090983;28;20480;-58
2022/03/03 07:43:15;;;;;;;21.70;14.27;;;2.40;1.00;;;;;;5093383;28;20443;-58
2022/03/03 07:45:42;;;;;;;25.90;16.27;;;2.60;1.00;;;;;;5092840;28;20444;-58
2022/03/03 07:48:07;;;;;;;22.37;14.93;;;2.90;1.00;;;;;;5101643;28;20448;-58
2022/03/03 07:50:39;;;;;;;24.57;14.70;;;3.00;1.00;;;;;;5092669;28;20456;-58
2022/03/03 07:53:11;;;;;;;22.63;15.80;;;3.20;1.00;;;;;;5096848;28;21010;-57
2022/03/03 07:55:50;;;;;;;23.50;14.87;;;3.10;1.00;;;;;;5091109;28;20448;-57
2022/03/03 07:58:21;;;;;;;25.57;15.73;;;3.20;1.00;;;;;;5092937;28;20444;-58
2022/03/03 08:00:51;;;;;;;20.60;13.97;;;3.20;1.00;;;;;;5094341;28;20517;-58
2022/03/03 08:03:19;;;;;;;19.53;13.50;;;3.30;1.00;;;;;;5102722;28;20436;-59
2022/03/03 08:05:47;;;;;;;21.00;12.83;;;3.30;1.00;;;;;;5094675;28;20440;-57
2022/03/03 08:08:15;;;;;;;16.07;12.73;;;3.40;1.00;;;;;;5091856;28;20963;-57
2022/03/03 08:10:42;;;;;;;20.77;13.37;;;3.70;1.00;;;;;;5091847;28;20508;-58
2022/03/03 08:13:14;;;;;;;20.13;14.10;;;3.90;1.00;;;;;;5092780;28;20468;-57
2022/03/03 08:15:42;;;;;;;23.57;14.30;;;3.90;1.00;;;;;;5096283;28;20441;-58
2022/03/03 08:18:08;;;;;;;17.70;12.83;;;;;;;;;;5092152;28;20941;-59
2022/03/03 08:20:35;;;;;;;17.03;13.37;;;3.70;1.00;;;;;;5093870;28;20525;-57
2022/03/03 08:23:02;;;;;;;25.77;13.97;;;3.80;1.00;;;;;;5091026;28;20544;-59
2022/03/03 08:25:29;;;;;;;20.93;12.30;;;3.70;1.00;;;;;;5092455;28;20969;-57
2022/03/03 08:27:55;;;;;;;18.03;12.00;;;;;;;;;;5092161;28;20792;-58
2022/03/03 08:30:21;;;;;;;19.97;14.17;;;3.80;1.00;;;;;;5091440;28;20511;-58
2022/03/03 08:33:22;;;;;;;18.43;14.13;;;4.00;1.00;;;;;;5092438;28;20466;-58
2022/03/03 08:35:55;;;;;;;21.23;13.77;;;4.00;1.00;;;;;;5059587;28;20527;-59
2022/03/03 08:38:34;;;;;;;18.47;14.43;;;4.00;1.00;;;;;;5091662;28;20771;-58
2022/03/03 08:41:01;;;;;;;23.47;15.80;;;4.20;1.00;;;;;;5091256;28;20589;-59
2022/03/03 08:43:33;;;;;;;19.93;14.13;;;4.40;1.00;;;;;;5091637;28;20445;-57
2022/03/03 08:46:05;;;;;;;20.53;13.97;;;4.60;1.00;;;;;;5092583;28;20425;-58
2022/03/03 08:48:32;;;;;;;23.37;15.50;;;4.70;1.00;;;;;;5091730;28;20802;-58
2022/03/03 08:51:05;;;;;;;21.53;15.67;;;4.70;1.00;;;;;;5110235;28;20581;-57
2022/03/03 08:53:30;;;;;;;22.03;15.60;;;4.90;1.00;;;;;;5112168;28;20431;-58
2022/03/03 08:55:58;;;;;;;24.77;17.10;;;5.00;1.00;;;;;;5103760;28;20933;-57
2022/03/03 08:58:24;;;;;;;24.77;17.17;;;5.10;1.00;;;;;;5112184;28;20190;-58
2022/03/03 09:00:50;;;;;;;24.33;16.60;;;5.20;1.00;;;;;;5100846;28;20862;-59
2022/03/03 09:03:21;;;;;;;25.93;17.70;;;5.40;1.00;;;;;;5091910;28;20536;-57
2022/03/03 09:05:47;;;;;;;21.87;16.33;;;5.80;1.00;;;;;;5091810;28;20628;-57
2022/03/03 09:08:13;;;;;;;25.17;18.43;;;6.00;1.00;;;;;;5089854;28;20460;-59
2022/03/03 09:10:39;;;;;;;25.57;18.23;;;6.20;1.00;;;;;;5107046;28;20444;-58
2022/03/03 09:13:05;;;;;;;25.17;18.10;;;6.20;1.00;;;;;;5103819;28;20182;-57
2022/03/03 09:15:31;;;;;;;30.40;20.23;;;;;;;;;;5091543;28;20498;-56
2022/03/03 09:17:57;;;;;;;24.10;19.17;;;5.90;1.00;;;;;;5091593;28;20604;-58
2022/03/03 09:20:22;;;;;;;23.53;17.73;;;5.80;1.00;;;;;;5097933;28;20507;-57
2022/03/03 09:22:48;;;;;;;31.00;19.43;;;6.00;1.00;;;;;;5109543;28;20521;-57
2022/03/03 09:25:14;;;;;;;25.30;18.30;;;6.30;1.00;;;;;;5107839;27;20666;-57
2022/03/03 09:27:40;;;;;;;26.60;19.27;;;;;;;;;;5090962;28;20186;-57
2022/03/03 09:30:06;;;;;;;30.80;20.47;;;6.70;1.00;;;;;;5091036;28;20809;-58
2022/03/03 09:32:32;;;;;;;28.13;19.97;;;6.90;1.00;;;;;;5091380;28;20531;-58
2022/03/03 09:34:58;;;;;;;29.50;19.23;;;6.90;1.00;;;;;;5090919;28;21162;-59
2022/03/03 09:37:24;;;;;;;28.70;19.50;;;;;;;;;;5090802;28;20190;-58
2022/03/03 09:39:50;;;;;;;28.87;20.27;;;7.50;1.00;;;;;;5089599;28;20183;-58
2022/03/03 09:42:16;;;;;;;27.33;20.40;;;7.50;1.00;;;;;;5090381;28;20444;-58
2022/03/03 09:44:42;;;;;;;26.77;20.53;;;7.40;1.00;;;;;;5091071;28;20456;-58
2022/03/03 09:47:09;;;;;;;24.07;18.73;;;7.30;1.00;;;;;;5090820;28;20539;-57
2022/03/03 09:49:34;;;;;;;26.67;19.20;;;7.20;1.00;;;;;;5100174;28;20452;-58
2022/03/03 09:52:01;;;;;;;28.97;19.23;;;7.20;1.00;;;;;;5111256;28;20440;-57
2022/03/03 09:54:26;;;;;;;27.50;20.00;;;7.10;1.00;;;;;;5100735;28;20190;-57
2022/03/03 09:56:52;;;;;;;26.87;21.30;;;7.20;1.00;;;;;;5097862;28;20425;-58
2022/03/03 09:59:18;;;;;;;21.30;17.60;;;7.30;1.00;;;;;;5105701;28;20174;-59
2022/03/03 10:01:46;;;;;;;27.33;20.60;;;7.30;1.00;;;;;;5093338;28;20206;-59
2022/03/03 10:04:24;;;;;;;26.50;19.90;;;7.20;1.00;;;;;;5090711;28;20308;-59
2022/03/03 10:06:50;;;;;;;23.87;19.00;;;7.40;1.00;;;;;;5088714;28;20428;-58
2022/03/03 10:09:17;;;;;;;27.60;19.77;;;;;;;;;;5088624;28;20459;-58
2022/03/03 10:11:48;;;;;;;27.63;19.80;;;7.60;1.00;;;;;;5104642;28;20421;-58
2022/03/03 10:14:14;;;;;;;29.73;20.13;;;;;;;;;;5107293;28;20473;-57
2022/03/03 10:16:47;;;;;;;25.70;19.50;;;7.60;1.00;;;;;;5099665;28;20448;-57
2022/03/03 10:19:13;;;;;;;26.40;19.90;;;7.60;1.00;;;;;;5089356;28;20440;-59
2022/03/03 10:21:41;;;;;;;25.63;19.73;;;;;;;;;;5106443;28;20955;-58
2022/03/03 10:24:21;;;;;;;33.83;21.13;;;7.70;1.00;;;;;;5103617;28;20177;-57
2022/03/03 10:26:59;;;;;;;24.10;19.43;;;7.50;1.00;;;;;;5090398;28;20451;-58
2022/03/03 10:29:25;;;;;;;27.10;19.43;;;7.60;1.00;;;;;;5088939;28;20460;-57
2022/03/03 10:31:53;;;;;;;23.67;17.90;;;7.60;1.00;;;;;;5090057;28;20550;-57
2022/03/03 10:34:30;;;;;;;24.63;18.07;;;7.70;1.00;;;;;;5090535;28;20440;-58
2022/03/03 10:37:02;;;;;;;25.87;19.20;;;7.90;1.00;;;;;;5090276;28;20435;-58
2022/03/03 10:39:38;;;;;;;31.27;20.20;;;7.80;1.00;;;;;;5090514;28;20489;-58
2022/03/03 10:42:12;;;;;;;32.60;21.03;;;8.00;1.00;;;;;;5089742;28;20475;-57
2022/03/03 10:44:38;;;;;;;26.10;20.03;;;8.00;1.00;;;;;;5089655;28;20439;-57
2022/03/03 10:47:05;;;;;;;24.03;18.97;;;8.10;1.00;;;;;;5089842;28;20445;-59
2022/03/03 10:49:31;;;;;;;22.63;18.57;;;8.30;1.00;;;;;;5090617;28;20175;-59
2022/03/03 10:52:18;;;;;;;23.73;18.90;;;8.60;1.00;;;;;;5089454;28;20444;-59
2022/03/03 10:55:06;;;;;;;25.53;19.40;;;8.70;1.00;;;;;;5094151;28;20440;-57
2022/03/03 10:57:56;;;;;;;26.13;19.53;;;8.80;1.00;;;;;;5093997;28;20449;-57
2022/03/03 11:00:24;;;;;;;24.77;18.83;;;8.60;1.00;;;;;;5108589;28;20487;-59
2022/03/03 11:02:52;;;;;;;23.43;17.17;;;8.60;1.00;;;;;;5097104;28;20480;-59
2022/03/03 11:05:20;;;;;;;26.50;18.67;;;8.70;1.00;;;;;;5093461;28;20528;-58
2022/03/03 11:07:47;;;;;;;23.07;17.30;;;8.70;1.00;;;;;;5094001;28;20925;-58
2022/03/03 11:10:18;;;;;;;25.70;18.30;;;8.90;1.00;;;;;;5093307;28;20445;-59
2022/03/03 11:12:44;;;;;;;24.23;17.33;;;8.80;1.00;;;;;;5091372;28;20483;-58
2022/03/03 11:15:18;;;;;;;22.23;16.73;;;8.70;1.00;;;;;;5093503;28;20551;-57
2022/03/03 11:17:45;;;;;;;27.93;18.70;;;9.00;1.00;;;;;;5108449;28;20431;-59
2022/03/03 11:20:15;;;;;;;25.60;18.13;;;9.00;1.00;;;;;;5104893;28;20440;-60
2022/03/03 11:22:42;;;;;;;27.13;17.40;;;9.20;1.00;;;;;;5093130;28;20471;-60
2022/03/03 11:25:11;;;;;;;22.83;17.43;;;8.90;1.00;;;;;;5093061;28;20439;-58
2022/03/03 11:27:42;;;;;;;22.50;17.50;;;8.80;1.00;;;;;;5091193;28;20455;-59
2022/03/03 11:30:28;;;;;;;25.50;18.27;;;9.20;1.00;;;;;;5102593;28;20910;-59
2022/03/03 11:33:27;;;;;;;23.10;16.23;;;9.40;1.00;;;;;;5092787;28;20516;-58
2022/03/03 11:36:01;;;;;;;21.83;15.20;;;9.60;1.00;;;;;;5095504;28;20519;-59
2022/03/03 11:38:41;;;;;;;20.07;15.67;;;9.70;1.00;;;;;;5094399;28;20435;-58
2022/03/03 11:41:07;;;;;;;18.90;14.57;;;;;;;;;;5113623;28;20459;-58
2022/03/03 11:44:14;;;;;;;19.27;13.87;;;9.80;1.00;;;;;;5113702;28;20439;-59
2022/03/03 11:46:47;;;;;;;18.70;14.40;;;9.90;1.00;;;;;;5097101;28;21025;-57
2022/03/03 11:49:22;;;;;;;22.00;15.70;;;10.00;1.00;;;;;;5103854;27;20518;-60
2022/03/03 11:51:49;;;;;;;18.17;13.83;;;10.10;1.00;;;;;;5093343;28;20794;-58
2022/03/03 11:54:23;;;;;;;22.83;15.13;;;10.20;1.00;;;;;;5093158;28;20448;-59
2022/03/03 11:57:03;;;;;;;22.40;14.50;;;10.00;1.00;;;;;;5092884;28;20971;-58
2022/03/03 11:59:47;;;;;;;23.80;13.90;;;9.80;1.00;;;;;;5091685;28;20513;-59
2022/03/03 12:02:16;;;;;;;17.90;13.30;;;10.00;1.00;;;;;;5090651;28;20476;-60
2022/03/03 12:04:42;;;;;;;17.30;13.60;;;10.00;1.00;;;;;;5088735;28;20437;-59
2022/03/03 12:07:28;;;;;;;18.20;13.60;;;10.00;1.00;;;;;;5092378;28;20441;-58
2022/03/03 12:09:56;;;;;;;18.53;10.87;;;;;;;;;;5089382;28;20829;-58
2022/03/03 12:12:27;;;;;;;22.00;12.87;;;9.10;1.00;;;;;;5092106;28;20441;-58
2022/03/03 12:14:54;;;;;;;17.00;13.33;;;9.20;1.00;;;;;;5092346;28;21044;-58
2022/03/03 12:17:46;;;;;;;20.43;13.60;;;9.20;1.00;;;;;;5092871;28;20421;-58
2022/03/03 12:20:33;;;;;;;22.20;14.90;;;9.40;1.00;;;;;;5092111;28;20463;-58
2022/03/03 12:23:13;;;;;;;21.10;14.80;;;9.70;1.00;;;;;;5092211;28;20441;-58
2022/03/03 12:25:51;;;;;;;20.90;14.77;;;9.80;1.00;;;;;;5089275;28;20606;-57
2022/03/03 12:28:39;;;;;;;17.30;13.67;;;10.20;1.00;;;;;;5091456;28;20470;-58
2022/03/03 12:31:40;;;;;;;20.73;14.90;;;10.10;1.00;;;;;;5091813;28;20993;-59
2022/03/03 12:34:07;;;;;;;19.47;14.00;;;10.30;1.00;;;;;;5078479;28;20751;-59
2022/03/03 12:36:36;;;;;;;22.97;16.13;;;10.20;1.00;;;;;;5089940;28;20440;-59
2022/03/03 12:39:06;;;;;;;24.40;15.50;;;10.10;1.00;;;;;;5091854;28;20441;-59
2022/03/03 12:41:34;;;;;;;23.87;15.87;;;10.20;1.00;;;;;;5092693;28;20480;-58
2022/03/03 12:44:13;;;;;;;25.40;16.97;;;10.30;1.00;;;;;;5112467;28;20480;-60
2022/03/03 12:46:40;;;;;;;18.73;15.03;;;10.40;1.00;;;;;;5094864;28;20511;-59
2022/03/03 12:49:08;;;;;;;22.90;15.33;;;10.30;1.00;;;;;;5095473;28;20428;-59
2022/03/03 12:51:40;;;;;;;22.80;15.33;;;10.30;1.00;;;;;;5093697;28;20505;-59
2022/03/03 12:54:06;;;;;;;22.43;14.93;;;10.30;1.00;;;;;;5092205;28;20437;-59
2022/03/03 12:56:33;;;;;;;24.40;15.10;;;10.20;1.00;;;;;;5099573;28;20455;-58
2022/03/03 12:59:01;;;;;;;21.03;15.87;;;10.20;1.00;;;;;;5094084;28;20445;-59
2022/03/03 13:01:27;;;;;;;20.83;15.67;;;10.10;1.00;;;;;;5094033;28;20792;-61
2022/03/03 13:03:53;;;;;;;21.10;16.33;;;10.40;1.00;;;;;;5091395;28;20448;-59
2022/03/03 13:06:20;;;;;;;20.50;16.43;;;10.60;1.00;;;;;;5091859;28;20183;-59